sensor_id;sensor_type;location;lat;lon;timestamp;P1;durP1;ratioP1;P2;durP2;ratioP2
79346;SDS011;68815;48.810;44.482;2023-06-05T00:02:06;4.5;;;1.9;;
79346;SDS011;68815;48.810;44.482;2023-06-05T00:05:08;4.2;;;1.8;;
79346;SDS011;68815;48.810;44.482;2023-06-05T00:08:09;6.2;;;1.8;;
79346;SDS011;68815;48.810;44.482;2023-06-05T00:11:11;4.7;;;1.7;;
79346;SDS011;68815;48.810;44.482;2023-06-05T00:14:12;5;;;1.6;;
79346;SDS011;68815;48.810;44.482;2023-06-05T00:17:14;5.6;;;1.9;;
79346;SDS011;68815;48.810;44.482;2023-06-05T00:20:15;4.7;;;1.7;;
79346;SDS011;68815;48.810;44.482;2023-06-05T00:23:17;4.5;;;1.7;;
79346;SDS011;68815;48.810;44.482;2023-06-05T00:26:18;4.4;;;1.7;;
79346;SDS011;68815;48.810;44.482;2023-06-05T00:29:20;4.1;;;1.7;;
79346;SDS011;68815;48.810;44.482;2023-06-05T00:32:21;4.5;;;1.7;;
79346;SDS011;68815;48.810;44.482;2023-06-05T00:35:22;4.4;;;2;;
79346;SDS011;68815;48.810;44.482;2023-06-05T00:38:24;4.3;;;1.7;;
79346;SDS011;68815;48.810;44.482;2023-06-05T00:41:25;3.7;;;1.6;;
79346;SDS011;68815;48.810;44.482;2023-06-05T00:44:27;4.4;;;1.7;;
79346;SDS011;68815;48.810;44.482;2023-06-05T00:47:28;6.5;;;1.9;;
79346;SDS011;68815;48.810;44.482;2023-06-05T00:50:31;5.8;;;2;;
79346;SDS011;68815;48.810;44.482;2023-06-05T00:53:33;5.5;;;1.7;;
79346;SDS011;68815;48.810;44.482;2023-06-05T00:56:36;3.9;;;1.6;;
79346;SDS011;68815;48.810;44.482;2023-06-05T00:59:38;5.2;;;1.9;;
79346;SDS011;68815;48.810;44.482;2023-06-05T01:02:40;4.1;;;1.9;;
79346;SDS011;68815;48.810;44.482;2023-06-05T01:05:42;6.8;;;2.1;;
79346;SDS011;68815;48.810;44.482;2023-06-05T01:08:45;5.6;;;2;;
79346;SDS011;68815;48.810;44.482;2023-06-05T01:11:50;4.2;;;1.7;;
79346;SDS011;68815;48.810;44.482;2023-06-05T01:14:55;4.3;;;1.6;;
79346;SDS011;68815;48.810;44.482;2023-06-05T01:17:58;5.7;;;2;;
79346;SDS011;68815;48.810;44.482;2023-06-05T01:21:00;5.5;;;1.8;;
79346;SDS011;68815;48.810;44.482;2023-06-05T01:24:02;4.7;;;1.9;;
79346;SDS011;68815;48.810;44.482;2023-06-05T01:27:05;5.5;;;1.9;;
79346;SDS011;68815;48.810;44.482;2023-06-05T01:30:13;4.3;;;1.8;;
79346;SDS011;68815;48.810;44.482;2023-06-05T01:33:21;4;;;1.8;;
79346;SDS011;68815;48.810;44.482;2023-06-05T01:36:28;4.5;;;1.9;;
79346;SDS011;68815;48.810;44.482;2023-06-05T01:39:30;3.9;;;1.8;;
79346;SDS011;68815;48.810;44.482;2023-06-05T01:42:32;4.7;;;1.7;;
79346;SDS011;68815;48.810;44.482;2023-06-05T01:45:33;4.4;;;1.7;;
79346;SDS011;68815;48.810;44.482;2023-06-05T01:48:37;6;;;2.3;;
79346;SDS011;68815;48.810;44.482;2023-06-05T01:51:39;4.6;;;2;;
79346;SDS011;68815;48.810;44.482;2023-06-05T01:54:40;4.9;;;1.9;;
79346;SDS011;68815;48.810;44.482;2023-06-05T01:57:42;4.3;;;1.8;;
79346;SDS011;68815;48.810;44.482;2023-06-05T02:00:43;8.4;;;2.2;;
79346;SDS011;68815;48.810;44.482;2023-06-05T02:03:44;6.1;;;1.8;;
79346;SDS011;68815;48.810;44.482;2023-06-05T02:06:46;6.9;;;2;;
79346;SDS011;68815;48.810;44.482;2023-06-05T02:09:47;4.5;;;2;;
79346;SDS011;68815;48.810;44.482;2023-06-05T02:12:49;8.5;;;2.2;;
79346;SDS011;68815;48.810;44.482;2023-06-05T02:15:50;6.7;;;1.9;;
79346;SDS011;68815;48.810;44.482;2023-06-05T02:18:52;7.1;;;2.3;;
79346;SDS011;68815;48.810;44.482;2023-06-05T02:21:53;4.3;;;1.8;;
79346;SDS011;68815;48.810;44.482;2023-06-05T02:24:55;6.8;;;2;;
79346;SDS011;68815;48.810;44.482;2023-06-05T02:27:56;5.8;;;2.1;;
79346;SDS011;68815;48.810;44.482;2023-06-05T02:30:58;6.9;;;2.2;;
79346;SDS011;68815;48.810;44.482;2023-06-05T02:33:59;6.2;;;2.1;;
79346;SDS011;68815;48.810;44.482;2023-06-05T02:37:01;6.3;;;2.3;;
79346;SDS011;68815;48.810;44.482;2023-06-05T02:40:03;4.6;;;2;;
79346;SDS011;68815;48.810;44.482;2023-06-05T02:43:06;4.3;;;2;;
79346;SDS011;68815;48.810;44.482;2023-06-05T02:46:07;5.4;;;1.8;;
79346;SDS011;68815;48.810;44.482;2023-06-05T02:49:09;4.4;;;2;;
79346;SDS011;68815;48.810;44.482;2023-06-05T02:52:10;4.7;;;2;;
79346;SDS011;68815;48.810;44.482;2023-06-05T02:55:11;11.2;;;6;;
79346;SDS011;68815;48.810;44.482;2023-06-05T02:58:13;6.7;;;3;;
79346;SDS011;68815;48.810;44.482;2023-06-05T03:01:14;11.7;;;6.5;;
79346;SDS011;68815;48.810;44.482;2023-06-05T03:04:15;14.4;;;7.5;;
79346;SDS011;68815;48.810;44.482;2023-06-05T03:07:17;5.5;;;2.7;;
79346;SDS011;68815;48.810;44.482;2023-06-05T03:10:18;9;;;3.9;;
79346;SDS011;68815;48.810;44.482;2023-06-05T03:13:21;5;;;2.5;;
79346;SDS011;68815;48.810;44.482;2023-06-05T03:16:22;10.5;;;2.5;;
79346;SDS011;68815;48.810;44.482;2023-06-05T03:19:23;4.2;;;2;;
79346;SDS011;68815;48.810;44.482;2023-06-05T03:22:25;4.8;;;2;;
79346;SDS011;68815;48.810;44.482;2023-06-05T03:25:26;6.1;;;2.3;;
79346;SDS011;68815;48.810;44.482;2023-06-05T03:28:28;5.2;;;2;;
79346;SDS011;68815;48.810;44.482;2023-06-05T03:31:30;4.8;;;2.1;;
79346;SDS011;68815;48.810;44.482;2023-06-05T03:34:31;8.8;;;2.2;;
79346;SDS011;68815;48.810;44.482;2023-06-05T03:37:34;5.1;;;2.2;;
79346;SDS011;68815;48.810;44.482;2023-06-05T03:40:35;5.4;;;2.2;;
79346;SDS011;68815;48.810;44.482;2023-06-05T03:43:37;6.4;;;2.2;;
79346;SDS011;68815;48.810;44.482;2023-06-05T03:46:38;6;;;2.2;;
79346;SDS011;68815;48.810;44.482;2023-06-05T03:49:39;8.8;;;2.6;;
79346;SDS011;68815;48.810;44.482;2023-06-05T03:52:41;4.4;;;2.2;;
79346;SDS011;68815;48.810;44.482;2023-06-05T03:55:42;5.7;;;2.4;;
79346;SDS011;68815;48.810;44.482;2023-06-05T03:58:44;6.3;;;2.2;;
79346;SDS011;68815;48.810;44.482;2023-06-05T04:01:45;7.2;;;2.6;;
79346;SDS011;68815;48.810;44.482;2023-06-05T04:04:46;5.1;;;2.4;;
79346;SDS011;68815;48.810;44.482;2023-06-05T04:07:48;8.2;;;2.3;;
79346;SDS011;68815;48.810;44.482;2023-06-05T04:10:49;7;;;2.3;;
79346;SDS011;68815;48.810;44.482;2023-06-05T04:13:50;5.7;;;2.1;;
79346;SDS011;68815;48.810;44.482;2023-06-05T04:16:52;9.2;;;2.2;;
79346;SDS011;68815;48.810;44.482;2023-06-05T04:19:53;5.2;;;2.4;;
79346;SDS011;68815;48.810;44.482;2023-06-05T04:22:54;5.9;;;2;;
79346;SDS011;68815;48.810;44.482;2023-06-05T04:25:56;8.2;;;2.4;;
79346;SDS011;68815;48.810;44.482;2023-06-05T04:28:58;4.9;;;2.2;;
79346;SDS011;68815;48.810;44.482;2023-06-05T04:31:59;8.8;;;2.3;;
79346;SDS011;68815;48.810;44.482;2023-06-05T04:35:01;7;;;2.2;;
79346;SDS011;68815;48.810;44.482;2023-06-05T04:38:04;4.7;;;2;;
79346;SDS011;68815;48.810;44.482;2023-06-05T04:41:06;9.6;;;2.4;;
79346;SDS011;68815;48.810;44.482;2023-06-05T04:44:08;11.4;;;2.7;;
79346;SDS011;68815;48.810;44.482;2023-06-05T04:47:09;7.2;;;2.5;;
79346;SDS011;68815;48.810;44.482;2023-06-05T04:50:20;6.8;;;2.3;;
79346;SDS011;68815;48.810;44.482;2023-06-05T04:53:23;4.5;;;2.2;;
79346;SDS011;68815;48.810;44.482;2023-06-05T04:56:25;6.2;;;2.4;;
79346;SDS011;68815;48.810;44.482;2023-06-05T04:59:26;7;;;2.1;;
79346;SDS011;68815;48.810;44.482;2023-06-05T05:02:28;5.6;;;2.5;;
79346;SDS011;68815;48.810;44.482;2023-06-05T05:05:29;6;;;2.5;;
79346;SDS011;68815;48.810;44.482;2023-06-05T05:08:32;11.9;;;3.8;;
79346;SDS011;68815;48.810;44.482;2023-06-05T05:11:33;5;;;2.4;;
79346;SDS011;68815;48.810;44.482;2023-06-05T05:14:35;10.4;;;2.6;;
79346;SDS011;68815;48.810;44.482;2023-06-05T05:17:37;9.9;;;3.1;;
79346;SDS011;68815;48.810;44.482;2023-06-05T05:20:38;7;;;2.4;;
79346;SDS011;68815;48.810;44.482;2023-06-05T05:23:39;7.4;;;2.5;;
79346;SDS011;68815;48.810;44.482;2023-06-05T05:26:41;9.3;;;2.8;;
79346;SDS011;68815;48.810;44.482;2023-06-05T05:29:42;8.8;;;2.8;;
79346;SDS011;68815;48.810;44.482;2023-06-05T05:32:44;6.6;;;2.4;;
79346;SDS011;68815;48.810;44.482;2023-06-05T05:35:45;10.8;;;2.7;;
79346;SDS011;68815;48.810;44.482;2023-06-05T05:38:47;9.9;;;3;;
79346;SDS011;68815;48.810;44.482;2023-06-05T05:41:48;16.6;;;3.3;;
79346;SDS011;68815;48.810;44.482;2023-06-05T05:44:49;9.9;;;2.9;;
79346;SDS011;68815;48.810;44.482;2023-06-05T05:47:51;7.4;;;2.9;;
79346;SDS011;68815;48.810;44.482;2023-06-05T05:50:52;5.8;;;2.8;;
79346;SDS011;68815;48.810;44.482;2023-06-05T05:53:54;7.5;;;3.1;;
79346;SDS011;68815;48.810;44.482;2023-06-05T05:56:55;5.1;;;2.4;;
79346;SDS011;68815;48.810;44.482;2023-06-05T05:59:57;6.8;;;2.5;;
79346;SDS011;68815;48.810;44.482;2023-06-05T06:02:58;5.9;;;2.4;;
79346;SDS011;68815;48.810;44.482;2023-06-05T06:05:59;6.5;;;2.3;;
79346;SDS011;68815;48.810;44.482;2023-06-05T06:09:01;6.9;;;2.4;;
79346;SDS011;68815;48.810;44.482;2023-06-05T06:12:02;6.6;;;2.6;;
79346;SDS011;68815;48.810;44.482;2023-06-05T06:15:04;7.7;;;2.8;;
79346;SDS011;68815;48.810;44.482;2023-06-05T06:18:07;6.8;;;2.8;;
79346;SDS011;68815;48.810;44.482;2023-06-05T06:21:09;7.1;;;2.8;;
79346;SDS011;68815;48.810;44.482;2023-06-05T06:24:10;5.9;;;2.6;;
79346;SDS011;68815;48.810;44.482;2023-06-05T06:27:12;8.7;;;2.4;;
79346;SDS011;68815;48.810;44.482;2023-06-05T06:30:13;6.1;;;2.5;;
79346;SDS011;68815;48.810;44.482;2023-06-05T06:33:15;7.4;;;2.4;;
79346;SDS011;68815;48.810;44.482;2023-06-05T06:36:16;7.4;;;2.6;;
79346;SDS011;68815;48.810;44.482;2023-06-05T06:39:18;5.8;;;2.5;;
79346;SDS011;68815;48.810;44.482;2023-06-05T06:42:19;11.1;;;2.6;;
79346;SDS011;68815;48.810;44.482;2023-06-05T06:45:21;6.6;;;2.2;;
79346;SDS011;68815;48.810;44.482;2023-06-05T06:48:22;12.2;;;2.9;;
79346;SDS011;68815;48.810;44.482;2023-06-05T06:51:24;9.9;;;2.3;;
79346;SDS011;68815;48.810;44.482;2023-06-05T06:54:26;6.6;;;2.5;;
79346;SDS011;68815;48.810;44.482;2023-06-05T06:57:27;5.1;;;2.4;;
79346;SDS011;68815;48.810;44.482;2023-06-05T07:00:28;5.5;;;2.3;;
79346;SDS011;68815;48.810;44.482;2023-06-05T07:03:30;6.4;;;2.3;;
79346;SDS011;68815;48.810;44.482;2023-06-05T07:06:31;6.5;;;2.3;;
79346;SDS011;68815;48.810;44.482;2023-06-05T07:09:32;6.3;;;2.3;;
79346;SDS011;68815;48.810;44.482;2023-06-05T07:12:38;7;;;2.2;;
79346;SDS011;68815;48.810;44.482;2023-06-05T07:15:40;5.6;;;2.2;;
79346;SDS011;68815;48.810;44.482;2023-06-05T07:18:42;6.2;;;2.3;;
79346;SDS011;68815;48.810;44.482;2023-06-05T07:21:43;9.7;;;3.1;;
79346;SDS011;68815;48.810;44.482;2023-06-05T07:24:44;7.4;;;2.5;;
79346;SDS011;68815;48.810;44.482;2023-06-05T07:27:45;5.6;;;2.5;;
79346;SDS011;68815;48.810;44.482;2023-06-05T07:30:47;5.4;;;2.2;;
79346;SDS011;68815;48.810;44.482;2023-06-05T07:33:49;6.3;;;2.4;;
79346;SDS011;68815;48.810;44.482;2023-06-05T07:36:50;7.1;;;2.2;;
79346;SDS011;68815;48.810;44.482;2023-06-05T07:39:53;9.2;;;2.5;;
79346;SDS011;68815;48.810;44.482;2023-06-05T07:42:54;6.3;;;2.3;;
79346;SDS011;68815;48.810;44.482;2023-06-05T07:45:56;8.3;;;2.3;;
79346;SDS011;68815;48.810;44.482;2023-06-05T07:48:57;7.6;;;2.6;;
79346;SDS011;68815;48.810;44.482;2023-06-05T07:51:58;9.9;;;2.4;;
79346;SDS011;68815;48.810;44.482;2023-06-05T07:55:00;15.2;;;3;;
79346;SDS011;68815;48.810;44.482;2023-06-05T07:58:02;13.6;;;2.6;;
79346;SDS011;68815;48.810;44.482;2023-06-05T08:01:03;16.1;;;3.2;;
79346;SDS011;68815;48.810;44.482;2023-06-05T08:04:05;11.4;;;2.7;;
79346;SDS011;68815;48.810;44.482;2023-06-05T08:07:06;10.2;;;2.7;;
79346;SDS011;68815;48.810;44.482;2023-06-05T08:10:08;9.1;;;2.8;;
79346;SDS011;68815;48.810;44.482;2023-06-05T08:13:10;10.8;;;2.6;;
79346;SDS011;68815;48.810;44.482;2023-06-05T08:16:12;8.6;;;3;;
79346;SDS011;68815;48.810;44.482;2023-06-05T08:19:13;11.5;;;3.3;;
79346;SDS011;68815;48.810;44.482;2023-06-05T08:22:15;6;;;2.5;;
79346;SDS011;68815;48.810;44.482;2023-06-05T08:25:16;11.1;;;2.8;;
79346;SDS011;68815;48.810;44.482;2023-06-05T08:28:17;10.7;;;3;;
79346;SDS011;68815;48.810;44.482;2023-06-05T08:31:19;10;;;2.7;;
79346;SDS011;68815;48.810;44.482;2023-06-05T08:34:20;9.5;;;2.6;;
79346;SDS011;68815;48.810;44.482;2023-06-05T08:37:22;6.8;;;2.6;;
79346;SDS011;68815;48.810;44.482;2023-06-05T08:40:23;6.7;;;2.6;;
79346;SDS011;68815;48.810;44.482;2023-06-05T08:43:28;7.8;;;3;;
79346;SDS011;68815;48.810;44.482;2023-06-05T08:46:30;7.2;;;2.6;;
79346;SDS011;68815;48.810;44.482;2023-06-05T08:49:31;8.4;;;2.9;;
79346;SDS011;68815;48.810;44.482;2023-06-05T08:52:37;8.1;;;2.8;;
79346;SDS011;68815;48.810;44.482;2023-06-05T08:55:39;8.1;;;2.8;;
79346;SDS011;68815;48.810;44.482;2023-06-05T08:58:41;5.5;;;2.6;;
79346;SDS011;68815;48.810;44.482;2023-06-05T09:01:46;8.9;;;2.6;;
79346;SDS011;68815;48.810;44.482;2023-06-05T09:04:48;10.1;;;2.7;;
79346;SDS011;68815;48.810;44.482;2023-06-05T09:07:49;5.4;;;2.4;;
79346;SDS011;68815;48.810;44.482;2023-06-05T09:10:51;6.5;;;2.6;;
79346;SDS011;68815;48.810;44.482;2023-06-05T09:13:53;6;;;2.3;;
79346;SDS011;68815;48.810;44.482;2023-06-05T09:16:56;7.6;;;2.5;;
79346;SDS011;68815;48.810;44.482;2023-06-05T09:19:58;7.8;;;2.4;;
79346;SDS011;68815;48.810;44.482;2023-06-05T09:22:59;8.2;;;2.3;;
79346;SDS011;68815;48.810;44.482;2023-06-05T09:26:01;6.3;;;2;;
79346;SDS011;68815;48.810;44.482;2023-06-05T09:29:03;5.5;;;2.4;;
79346;SDS011;68815;48.810;44.482;2023-06-05T09:32:05;9.9;;;2.4;;
79346;SDS011;68815;48.810;44.482;2023-06-05T09:35:07;8.6;;;2.8;;
79346;SDS011;68815;48.810;44.482;2023-06-05T09:38:15;6.4;;;2.4;;
79346;SDS011;68815;48.810;44.482;2023-06-05T09:41:27;5.3;;;2.3;;
79346;SDS011;68815;48.810;44.482;2023-06-05T09:44:29;6.2;;;2.6;;
79346;SDS011;68815;48.810;44.482;2023-06-05T09:47:31;6.1;;;2.2;;
79346;SDS011;68815;48.810;44.482;2023-06-05T09:50:33;5.1;;;2.3;;
79346;SDS011;68815;48.810;44.482;2023-06-05T09:53:34;7.3;;;2.4;;
79346;SDS011;68815;48.810;44.482;2023-06-05T09:56:38;6.9;;;2.5;;
79346;SDS011;68815;48.810;44.482;2023-06-05T09:59:44;10.8;;;2.8;;
79346;SDS011;68815;48.810;44.482;2023-06-05T10:02:51;10.2;;;2.5;;
79346;SDS011;68815;48.810;44.482;2023-06-05T10:05:55;6.1;;;2.2;;
79346;SDS011;68815;48.810;44.482;2023-06-05T10:08:57;15;;;2.8;;
79346;SDS011;68815;48.810;44.482;2023-06-05T10:11:59;8.2;;;2.3;;
79346;SDS011;68815;48.810;44.482;2023-06-05T10:15:00;6.4;;;2.2;;
79346;SDS011;68815;48.810;44.482;2023-06-05T10:18:08;6.6;;;2.2;;
79346;SDS011;68815;48.810;44.482;2023-06-05T10:21:10;12.4;;;3.1;;
79346;SDS011;68815;48.810;44.482;2023-06-05T10:24:12;7.7;;;2.8;;
79346;SDS011;68815;48.810;44.482;2023-06-05T10:27:24;9.7;;;2.6;;
79346;SDS011;68815;48.810;44.482;2023-06-05T10:30:43;9.1;;;2.4;;
79346;SDS011;68815;48.810;44.482;2023-06-05T10:34:02;6.7;;;2.3;;
79346;SDS011;68815;48.810;44.482;2023-06-05T10:37:12;8.4;;;2.3;;
79346;SDS011;68815;48.810;44.482;2023-06-05T10:40:29;5.9;;;2.3;;
79346;SDS011;68815;48.810;44.482;2023-06-05T10:43:31;7;;;2.5;;
79346;SDS011;68815;48.810;44.482;2023-06-05T10:46:34;7.3;;;2.5;;
79346;SDS011;68815;48.810;44.482;2023-06-05T10:49:37;8.5;;;2.9;;
79346;SDS011;68815;48.810;44.482;2023-06-05T10:52:38;10.1;;;2.5;;
79346;SDS011;68815;48.810;44.482;2023-06-05T10:55:41;7.1;;;2.2;;
79346;SDS011;68815;48.810;44.482;2023-06-05T11:05:27;5.9;;;2.5;;
79346;SDS011;68815;48.810;44.482;2023-06-05T11:08:29;5.6;;;2.5;;
79346;SDS011;68815;48.810;44.482;2023-06-05T11:11:35;8.7;;;2.6;;
79346;SDS011;68815;48.810;44.482;2023-06-05T11:15:02;6.3;;;2.3;;
79346;SDS011;68815;48.810;44.482;2023-06-05T11:28:37;11.5;;;2.8;;
79346;SDS011;68815;48.810;44.482;2023-06-05T11:31:40;7.6;;;2.6;;
79346;SDS011;68815;48.810;44.482;2023-06-05T11:34:46;4.9;;;2.5;;
79346;SDS011;68815;48.810;44.482;2023-06-05T11:37:47;8.6;;;2.5;;
79346;SDS011;68815;48.810;44.482;2023-06-05T11:40:49;7.9;;;2.3;;
79346;SDS011;68815;48.810;44.482;2023-06-05T11:43:50;9.3;;;2.7;;
79346;SDS011;68815;48.810;44.482;2023-06-05T11:46:52;10.6;;;2.2;;
79346;SDS011;68815;48.810;44.482;2023-06-05T11:49:54;6.8;;;2.4;;
79346;SDS011;68815;48.810;44.482;2023-06-05T11:53:09;7.1;;;2.6;;
79346;SDS011;68815;48.810;44.482;2023-06-05T11:56:12;10;;;2.6;;
79346;SDS011;68815;48.810;44.482;2023-06-05T11:59:14;9.6;;;2.9;;
79346;SDS011;68815;48.810;44.482;2023-06-05T12:02:20;6.6;;;2.5;;
79346;SDS011;68815;48.810;44.482;2023-06-05T12:05:23;6.4;;;2.4;;
79346;SDS011;68815;48.810;44.482;2023-06-05T12:08:25;7;;;2.5;;
79346;SDS011;68815;48.810;44.482;2023-06-05T12:11:27;8.7;;;2.9;;
79346;SDS011;68815;48.810;44.482;2023-06-05T12:14:30;10.9;;;3;;
79346;SDS011;68815;48.810;44.482;2023-06-05T12:17:32;8.5;;;3;;
79346;SDS011;68815;48.810;44.482;2023-06-05T12:20:37;13.1;;;3.5;;
79346;SDS011;68815;48.810;44.482;2023-06-05T12:23:40;8.7;;;2.9;;
79346;SDS011;68815;48.810;44.482;2023-06-05T12:26:50;11.3;;;2.9;;
79346;SDS011;68815;48.810;44.482;2023-06-05T12:29:52;6.4;;;2.7;;
79346;SDS011;68815;48.810;44.482;2023-06-05T12:32:54;11.5;;;2.9;;
79346;SDS011;68815;48.810;44.482;2023-06-05T12:36:06;11.8;;;3;;
79346;SDS011;68815;48.810;44.482;2023-06-05T12:39:09;6.4;;;2.8;;
79346;SDS011;68815;48.810;44.482;2023-06-05T12:42:11;11.5;;;3.3;;
79346;SDS011;68815;48.810;44.482;2023-06-05T12:45:12;7;;;3.1;;
79346;SDS011;68815;48.810;44.482;2023-06-05T12:48:14;8;;;3;;
79346;SDS011;68815;48.810;44.482;2023-06-05T12:51:16;10;;;2.8;;
79346;SDS011;68815;48.810;44.482;2023-06-05T12:54:17;11.5;;;3;;
79346;SDS011;68815;48.810;44.482;2023-06-05T12:57:18;10.5;;;3;;
79346;SDS011;68815;48.810;44.482;2023-06-05T13:00:20;6.2;;;2.8;;
79346;SDS011;68815;48.810;44.482;2023-06-05T13:03:21;8.7;;;2.7;;
79346;SDS011;68815;48.810;44.482;2023-06-05T13:06:23;8.6;;;2.7;;
79346;SDS011;68815;48.810;44.482;2023-06-05T13:09:24;6.6;;;2.2;;
79346;SDS011;68815;48.810;44.482;2023-06-05T13:12:25;6.9;;;2.4;;
79346;SDS011;68815;48.810;44.482;2023-06-05T13:15:27;5.5;;;2.4;;
79346;SDS011;68815;48.810;44.482;2023-06-05T13:18:28;8.4;;;2.4;;
79346;SDS011;68815;48.810;44.482;2023-06-05T13:21:29;8.9;;;2.7;;
79346;SDS011;68815;48.810;44.482;2023-06-05T13:24:31;6.1;;;2.4;;
79346;SDS011;68815;48.810;44.482;2023-06-05T13:27:32;7.9;;;2.5;;
79346;SDS011;68815;48.810;44.482;2023-06-05T13:30:34;6.9;;;2.2;;
79346;SDS011;68815;48.810;44.482;2023-06-05T13:33:35;7.7;;;2;;
79346;SDS011;68815;48.810;44.482;2023-06-05T13:36:37;8.2;;;2.3;;
79346;SDS011;68815;48.810;44.482;2023-06-05T13:39:38;6.7;;;2.2;;
79346;SDS011;68815;48.810;44.482;2023-06-05T13:42:40;7.4;;;2.1;;
79346;SDS011;68815;48.810;44.482;2023-06-05T13:45:41;7.8;;;2.2;;
79346;SDS011;68815;48.810;44.482;2023-06-05T13:48:43;9.7;;;2.3;;
79346;SDS011;68815;48.810;44.482;2023-06-05T13:51:44;11.6;;;2.2;;
79346;SDS011;68815;48.810;44.482;2023-06-05T13:54:46;8.8;;;2.1;;
79346;SDS011;68815;48.810;44.482;2023-06-05T13:57:47;5.4;;;2.3;;
79346;SDS011;68815;48.810;44.482;2023-06-05T14:00:49;5.9;;;2.1;;
79346;SDS011;68815;48.810;44.482;2023-06-05T14:03:50;9.5;;;2.4;;
79346;SDS011;68815;48.810;44.482;2023-06-05T14:06:52;10.3;;;2.5;;
79346;SDS011;68815;48.810;44.482;2023-06-05T14:09:53;7.5;;;2.5;;
79346;SDS011;68815;48.810;44.482;2023-06-05T14:12:54;7.7;;;2.8;;
79346;SDS011;68815;48.810;44.482;2023-06-05T14:15:56;8.7;;;2.6;;
79346;SDS011;68815;48.810;44.482;2023-06-05T14:18:57;5.3;;;2.6;;
79346;SDS011;68815;48.810;44.482;2023-06-05T14:21:58;6.7;;;2.6;;
79346;SDS011;68815;48.810;44.482;2023-06-05T14:25:00;7.6;;;2.9;;
79346;SDS011;68815;48.810;44.482;2023-06-05T14:28:01;7;;;2.7;;
79346;SDS011;68815;48.810;44.482;2023-06-05T14:31:03;8;;;2.3;;
79346;SDS011;68815;48.810;44.482;2023-06-05T14:34:04;6;;;2.3;;
79346;SDS011;68815;48.810;44.482;2023-06-05T14:37:06;7.8;;;2.5;;
79346;SDS011;68815;48.810;44.482;2023-06-05T14:40:08;6.3;;;2.8;;
79346;SDS011;68815;48.810;44.482;2023-06-05T14:43:10;12.1;;;2.5;;
79346;SDS011;68815;48.810;44.482;2023-06-05T14:46:11;9.2;;;2.7;;
79346;SDS011;68815;48.810;44.482;2023-06-05T14:49:13;8.9;;;2.5;;
79346;SDS011;68815;48.810;44.482;2023-06-05T14:52:14;8.1;;;2.7;;
79346;SDS011;68815;48.810;44.482;2023-06-05T14:55:15;5.6;;;2.5;;
79346;SDS011;68815;48.810;44.482;2023-06-05T14:58:17;7.4;;;2.4;;
79346;SDS011;68815;48.810;44.482;2023-06-05T15:01:18;11.8;;;2.7;;
79346;SDS011;68815;48.810;44.482;2023-06-05T15:04:20;7.2;;;2.5;;
79346;SDS011;68815;48.810;44.482;2023-06-05T15:07:21;14.6;;;2.9;;
79346;SDS011;68815;48.810;44.482;2023-06-05T15:10:23;7.7;;;2.6;;
79346;SDS011;68815;48.810;44.482;2023-06-05T15:13:24;9.6;;;2.7;;
79346;SDS011;68815;48.810;44.482;2023-06-05T15:16:25;6.2;;;2.5;;
79346;SDS011;68815;48.810;44.482;2023-06-05T15:19:27;7.5;;;3;;
79346;SDS011;68815;48.810;44.482;2023-06-05T15:22:28;8.4;;;2.8;;
79346;SDS011;68815;48.810;44.482;2023-06-05T15:25:29;8.5;;;2.7;;
79346;SDS011;68815;48.810;44.482;2023-06-05T15:28:31;9.5;;;3.1;;
79346;SDS011;68815;48.810;44.482;2023-06-05T15:31:32;8.8;;;2.9;;
79346;SDS011;68815;48.810;44.482;2023-06-05T15:34:34;8.2;;;3.1;;
79346;SDS011;68815;48.810;44.482;2023-06-05T15:37:36;10.5;;;3.3;;
79346;SDS011;68815;48.810;44.482;2023-06-05T15:40:38;9.9;;;2.7;;
79346;SDS011;68815;48.810;44.482;2023-06-05T15:43:39;9.9;;;2.8;;
79346;SDS011;68815;48.810;44.482;2023-06-05T15:46:41;15.9;;;3.4;;
79346;SDS011;68815;48.810;44.482;2023-06-05T15:49:43;19.1;;;3.5;;
79346;SDS011;68815;48.810;44.482;2023-06-05T15:52:44;12.8;;;3.6;;
79346;SDS011;68815;48.810;44.482;2023-06-05T15:55:45;12.4;;;2.9;;
79346;SDS011;68815;48.810;44.482;2023-06-05T15:58:47;16.7;;;6;;
79346;SDS011;68815;48.810;44.482;2023-06-05T16:01:48;16.7;;;3.6;;
79346;SDS011;68815;48.810;44.482;2023-06-05T16:04:49;8.6;;;2.9;;
79346;SDS011;68815;48.810;44.482;2023-06-05T16:07:51;11.3;;;3.6;;
79346;SDS011;68815;48.810;44.482;2023-06-05T16:10:52;9.3;;;4;;
79346;SDS011;68815;48.810;44.482;2023-06-05T16:13:54;11.3;;;4.2;;
79346;SDS011;68815;48.810;44.482;2023-06-05T16:16:55;8.5;;;3.1;;
79346;SDS011;68815;48.810;44.482;2023-06-05T16:19:56;11.1;;;3.5;;
79346;SDS011;68815;48.810;44.482;2023-06-05T16:22:58;13;;;3.7;;
79346;SDS011;68815;48.810;44.482;2023-06-05T16:25:59;10;;;3.2;;
79346;SDS011;68815;48.810;44.482;2023-06-05T16:29:01;8.5;;;3;;
79346;SDS011;68815;48.810;44.482;2023-06-05T16:32:02;10.5;;;3.7;;
79346;SDS011;68815;48.810;44.482;2023-06-05T16:35:03;11.1;;;4;;
79346;SDS011;68815;48.810;44.482;2023-06-05T16:38:06;14.2;;;4.2;;
79346;SDS011;68815;48.810;44.482;2023-06-05T16:41:08;11.6;;;4.1;;
79346;SDS011;68815;48.810;44.482;2023-06-05T16:44:10;10.5;;;4;;
79346;SDS011;68815;48.810;44.482;2023-06-05T16:47:11;12.6;;;3.5;;
79346;SDS011;68815;48.810;44.482;2023-06-05T16:50:12;10.8;;;3.5;;
79346;SDS011;68815;48.810;44.482;2023-06-05T16:53:14;9.4;;;4.2;;
79346;SDS011;68815;48.810;44.482;2023-06-05T16:56:16;13.6;;;4.8;;
79346;SDS011;68815;48.810;44.482;2023-06-05T16:59:17;10.6;;;5;;
79346;SDS011;68815;48.810;44.482;2023-06-05T17:02:19;8.2;;;3.9;;
79346;SDS011;68815;48.810;44.482;2023-06-05T17:05:20;9.9;;;4;;
79346;SDS011;68815;48.810;44.482;2023-06-05T17:08:22;8.1;;;3.3;;
79346;SDS011;68815;48.810;44.482;2023-06-05T17:11:23;9.5;;;3.3;;
79346;SDS011;68815;48.810;44.482;2023-06-05T17:14:25;7.9;;;3;;
79346;SDS011;68815;48.810;44.482;2023-06-05T17:17:26;11.3;;;3.6;;
79346;SDS011;68815;48.810;44.482;2023-06-05T17:20:28;8.8;;;2.7;;
79346;SDS011;68815;48.810;44.482;2023-06-05T17:23:29;9.7;;;4.9;;
79346;SDS011;68815;48.810;44.482;2023-06-05T17:26:31;10.2;;;3.4;;
79346;SDS011;68815;48.810;44.482;2023-06-05T17:29:32;12.6;;;4;;
79346;SDS011;68815;48.810;44.482;2023-06-05T17:32:34;10.5;;;4.2;;
79346;SDS011;68815;48.810;44.482;2023-06-05T17:35:35;11.7;;;4.4;;
79346;SDS011;68815;48.810;44.482;2023-06-05T17:38:36;9.7;;;4.3;;
79346;SDS011;68815;48.810;44.482;2023-06-05T17:41:38;13.5;;;4.7;;
79346;SDS011;68815;48.810;44.482;2023-06-05T17:44:40;11.8;;;4.5;;
79346;SDS011;68815;48.810;44.482;2023-06-05T17:47:41;12.3;;;5.1;;
79346;SDS011;68815;48.810;44.482;2023-06-05T17:50:42;12;;;5;;
79346;SDS011;68815;48.810;44.482;2023-06-05T17:53:44;10;;;4.3;;
79346;SDS011;68815;48.810;44.482;2023-06-05T17:56:45;10.3;;;4.3;;
79346;SDS011;68815;48.810;44.482;2023-06-05T17:59:47;9.5;;;3.9;;
79346;SDS011;68815;48.810;44.482;2023-06-05T18:02:48;9.1;;;4.1;;
79346;SDS011;68815;48.810;44.482;2023-06-05T18:05:50;8.4;;;3.4;;
79346;SDS011;68815;48.810;44.482;2023-06-05T18:08:51;7.7;;;3.3;;
79346;SDS011;68815;48.810;44.482;2023-06-05T18:11:53;8.4;;;3.3;;
79346;SDS011;68815;48.810;44.482;2023-06-05T18:14:54;9.9;;;3.6;;
79346;SDS011;68815;48.810;44.482;2023-06-05T18:17:56;9.4;;;3.5;;
79346;SDS011;68815;48.810;44.482;2023-06-05T18:20:58;9.1;;;4.6;;
79346;SDS011;68815;48.810;44.482;2023-06-05T18:23:59;11.2;;;4.6;;
79346;SDS011;68815;48.810;44.482;2023-06-05T18:27:00;11.4;;;4.6;;
79346;SDS011;68815;48.810;44.482;2023-06-05T18:30:02;14.2;;;5.7;;
79346;SDS011;68815;48.810;44.482;2023-06-05T18:33:06;16.3;;;6.9;;
79346;SDS011;68815;48.810;44.482;2023-06-05T18:36:07;15.8;;;6;;
79346;SDS011;68815;48.810;44.482;2023-06-05T18:39:08;10;;;4.5;;
79346;SDS011;68815;48.810;44.482;2023-06-05T18:42:10;10.4;;;3.9;;
79346;SDS011;68815;48.810;44.482;2023-06-05T18:45:13;9.7;;;3.6;;
79346;SDS011;68815;48.810;44.482;2023-06-05T18:48:14;9.6;;;3.7;;
79346;SDS011;68815;48.810;44.482;2023-06-05T18:51:16;7.3;;;3;;
79346;SDS011;68815;48.810;44.482;2023-06-05T18:54:17;9.5;;;3.1;;
79346;SDS011;68815;48.810;44.482;2023-06-05T18:57:19;6.7;;;3;;